Time;durP1;ratioP1;P1;durP2;ratioP2;P2;SDS_P1;SDS_P2;PMS_P1;PMS_P2;Temp;Humidity;BMP_temperature;BMP_pressure;BME280_temperature;BME280_humidity;BME280_pressure;Samples;Min_cycle;Max_cycle;Signal;HPM_P1;HPM_P2
2021/11/03 00:01:05;;;;;;;14.38;10.80;;;;;;;;;;5037258;28;20556;-81
2021/11/03 00:03:34;;;;;;;14.25;10.70;;;;;;;;;;5038157;28;20710;-81
2021/11/03 00:06:01;;;;;;;12.38;8.80;;;;;;;;;;5040907;28;20214;-81
2021/11/03 00:08:29;;;;;;;12.15;9.23;;;;;;;;;;5041065;28;20667;-81
2021/11/03 00:10:56;;;;;;;10.57;8.57;;;;;;;;;;5038187;28;20224;-81
2021/11/03 00:13:24;;;;;;;9.35;8.35;;;;;;;;;;5037875;28;20200;-81
2021/11/03 00:15:53;;;;;;;12.95;9.05;;;;;;;;;;5038268;28;20273;-81
2021/11/03 00:18:20;;;;;;;9.57;8.30;;;;;;;;;;5038639;28;20199;-80
2021/11/03 00:20:48;;;;;;;13.52;9.50;;;;;;;;;;5039134;28;20227;-81
2021/11/03 00:23:15;;;;;;;10.57;9.48;;;;;;;;;;5038190;28;20277;-81
2021/11/03 00:25:45;;;;;;;10.98;9.13;;;;;;;;;;5040022;28;20203;-80
2021/11/03 00:28:13;;;;;;;12.15;9.68;;;;;;;;;;5047383;28;20566;-80
2021/11/03 00:30:40;;;;;;;15.35;10.25;;;;;;;;;;5049544;28;20227;-81
2021/11/03 00:33:09;;;;;;;16.98;10.13;;;;;;;;;;5046841;28;20203;-82
2021/11/03 00:35:36;;;;;;;14.93;9.32;;;;;;;;;;5045508;28;20337;-81
2021/11/03 00:38:03;;;;;;;12.55;9.10;;;;;;;;;;5042229;28;20210;-82
2021/11/03 00:40:30;;;;;;;11.48;8.55;;;;;;;;;;5041015;28;20232;-80
2021/11/03 00:42:57;;;;;;;15.95;10.32;;;;;;;;;;5035419;28;20251;-81
2021/11/03 00:45:24;;;;;;;14.63;9.30;;;;;;;;;;5035452;28;20266;-80
2021/11/03 00:47:51;;;;;;;10.40;8.85;;;;;;;;;;5036790;28;20288;-81
2021/11/03 00:50:19;;;;;;;12.88;8.93;;;;;;;;;;5037065;28;20224;-81
2021/11/03 00:52:46;;;;;;;9.05;7.03;;;;;;;;;;5038107;28;20246;-81
2021/11/03 00:55:13;;;;;;;8.27;6.53;;;;;;;;;;5036063;28;20307;-81
2021/11/03 00:57:40;;;;;;;9.38;7.90;;;;;;;;;;5036671;28;20257;-81
2021/11/03 01:00:09;;;;;;;11.73;6.95;;;;;;;;;;5036540;28;20285;-81
2021/11/03 01:02:36;;;;;;;8.45;7.25;;;;;;;;;;5037328;28;20626;-82
2021/11/03 01:05:03;;;;;;;10.20;7.72;;;;;;;;;;5041026;28;20257;-80
2021/11/03 01:07:31;;;;;;;8.32;7.28;;;;;;;;;;5040877;28;20200;-78
2021/11/03 01:09:58;;;;;;;12.38;7.70;;;;;;;;;;5042324;28;20641;-79
2021/11/03 01:12:25;;;;;;;10.82;7.70;;;;;;;;;;5041303;28;20253;-80
2021/11/03 01:14:55;;;;;;;8.52;7.50;;;;;;;;;;5041431;28;20207;-81
2021/11/03 01:17:22;;;;;;;10.18;7.68;;;;;;;;;;5040913;28;20235;-81
2021/11/03 01:19:49;;;;;;;9.87;7.43;;;;;;;;;;5040929;28;20267;-81
2021/11/03 01:22:16;;;;;;;8.05;7.03;;;;;;;;;;5042960;28;20545;-79
2021/11/03 01:24:44;;;;;;;9.27;7.65;;;;;;;;;;5052619;28;20227;-79
2021/11/03 01:27:11;;;;;;;10.00;7.80;;;;;;;;;;5052390;28;20230;-79
2021/11/03 01:29:38;;;;;;;8.07;7.28;;;;;;;;;;5053239;28;20207;-79
2021/11/03 01:32:05;;;;;;;9.98;6.90;;;;;;;;;;5054258;28;20207;-79
2021/11/03 01:34:32;;;;;;;8.82;6.72;;;;;;;;;;5052158;28;20212;-79
2021/11/03 01:36:59;;;;;;;10.25;7.15;;;;;;;;;;5054015;28;20230;-79
2021/11/03 01:39:26;;;;;;;9.63;7.70;;;;;;;;;;5052036;28;20218;-80
2021/11/03 01:41:54;;;;;;;10.18;7.15;;;;;;;;;;5046881;28;20454;-80
2021/11/03 01:44:21;;;;;;;8.70;7.32;;;;;;;;;;5052060;28;20211;-80
2021/11/03 01:46:57;;;;;;;11.30;7.03;;;;;;;;;;5056642;28;20234;-79
2021/11/03 01:49:25;;;;;;;6.85;5.95;;;;;;;;;;5058659;28;20191;-79
2021/11/03 01:51:54;;;;;;;7.75;6.88;;;;;;;;;;5057651;28;20227;-78
2021/11/03 01:54:23;;;;;;;9.20;6.63;;;;;;;;;;5057014;28;20196;-80
2021/11/03 01:56:51;;;;;;;8.57;7.18;;;;;;;;;;5058387;28;20250;-78
2021/11/03 01:59:21;;;;;;;10.55;7.40;;;;;;;;;;5056300;28;20204;-79
2021/11/03 02:01:49;;;;;;;8.82;7.82;;;;;;;;;;5051184;28;20235;-81
2021/11/03 02:04:17;;;;;;;8.68;7.78;;;;;;;;;;5042142;28;20219;-81
2021/11/03 02:06:44;;;;;;;12.57;7.63;;;;;;;;;;5039816;28;20226;-81
2021/11/03 02:09:11;;;;;;;9.93;8.10;;;;;;;;;;5040808;28;20257;-81
2021/11/03 02:11:38;;;;;;;9.32;7.05;;;;;;;;;;5039386;28;20270;-81
2021/11/03 02:14:06;;;;;;;9.32;7.43;;;;;;;;;;5039736;28;20199;-81
2021/11/03 02:16:36;;;;;;;8.57;6.72;;;;;;;;;;5038317;28;20203;-81
2021/11/03 02:19:05;;;;;;;9.43;7.25;;;;;;;;;;5039558;28;20215;-81
2021/11/03 02:21:35;;;;;;;7.43;6.70;;;;;;;;;;5039296;28;20232;-81
2021/11/03 02:24:05;;;;;;;9.75;8.07;;;;;;;;;;5039645;28;20212;-81
2021/11/03 02:26:36;;;;;;;10.48;7.15;;;;;;;;;;5039600;28;20211;-80
2021/11/03 02:29:06;;;;;;;10.00;7.32;;;;;;;;;;5038068;28;20536;-81
2021/11/03 02:31:34;;;;;;;8.27;7.25;;;;;;;;;;5046364;28;20219;-81
2021/11/03 02:34:01;;;;;;;9.48;8.48;;;;;;;;;;5045932;28;20238;-80
2021/11/03 02:36:28;;;;;;;9.13;7.82;;;;;;;;;;5047549;28;20203;-81
2021/11/03 02:38:56;;;;;;;10.65;7.57;;;;;;;;;;5039602;28;20667;-80
2021/11/03 02:41:25;;;;;;;14.00;8.18;;;;;;;;;;5038032;28;20289;-81
2021/11/03 02:43:55;;;;;;;8.32;7.30;;;;;;;;;;5038687;28;20223;-81
2021/11/03 02:46:22;;;;;;;8.35;7.45;;;;;;;;;;5038634;28;20210;-80
2021/11/03 02:48:49;;;;;;;13.05;8.38;;;;;;;;;;5037652;28;20623;-80
2021/11/03 02:51:18;;;;;;;10.88;7.68;;;;;;;;;;5037557;28;20227;-80
2021/11/03 02:53:46;;;;;;;8.05;6.60;;;;;;;;;;5038022;28;20199;-80
2021/11/03 02:56:13;;;;;;;7.63;6.47;;;;;;;;;;5037707;28;20211;-80
2021/11/03 02:58:41;;;;;;;8.63;6.88;;;;;;;;;;5039913;28;20207;-80
2021/11/03 03:01:14;;;;;;;10.10;7.28;;;;;;;;;;5039761;28;20694;-80
2021/11/03 03:03:44;;;;;;;8.85;7.57;;;;;;;;;;5040253;28;20227;-79
2021/11/03 03:06:12;;;;;;;9.07;7.88;;;;;;;;;;5040399;28;20242;-80
2021/11/03 03:08:39;;;;;;;11.15;7.93;;;;;;;;;;5040509;28;20199;-80
2021/11/03 03:11:06;;;;;;;11.05;7.68;;;;;;;;;;5043113;28;20223;-80
2021/11/03 03:13:33;;;;;;;11.18;7.63;;;;;;;;;;5041169;28;20238;-80
2021/11/03 03:16:00;;;;;;;9.80;7.50;;;;;;;;;;5038128;28;20210;-80
2021/11/03 03:18:28;;;;;;;11.05;8.35;;;;;;;;;;5038085;28;20740;-81
2021/11/03 03:20:55;;;;;;;14.20;8.32;;;;;;;;;;5038045;28;20616;-81
2021/11/03 03:23:22;;;;;;;13.73;9.05;;;;;;;;;;5037533;28;20272;-80
2021/11/03 03:25:52;;;;;;;10.98;8.15;;;;;;;;;;5052906;28;20191;-79
2021/11/03 03:28:19;;;;;;;10.18;8.98;;;;;;;;;;5057727;28;20199;-79
2021/11/03 03:30:46;;;;;;;9.48;8.52;;;;;;;;;;5059009;28;20215;-79
2021/11/03 03:33:13;;;;;;;13.05;8.57;;;;;;;;;;5058914;28;20203;-80
2021/11/03 03:35:41;;;;;;;10.95;8.48;;;;;;;;;;5058921;28;20245;-79
2021/11/03 03:38:08;;;;;;;8.57;7.60;;;;;;;;;;5044733;28;20310;-81
2021/11/03 03:40:35;;;;;;;12.52;8.63;;;;;;;;;;5039762;28;20219;-81
2021/11/03 03:43:02;;;;;;;11.65;8.65;;;;;;;;;;5039063;28;20219;-80
2021/11/03 03:45:29;;;;;;;10.00;7.20;;;;;;;;;;5038224;28;20203;-81
2021/11/03 03:47:56;;;;;;;13.70;9.13;;;;;;;;;;5039503;28;20203;-81
2021/11/03 03:50:23;;;;;;;15.43;10.32;;;;;;;;;;5038973;28;20255;-81
2021/11/03 03:52:51;;;;;;;11.48;8.00;;;;;;;;;;5038970;28;20601;-81
2021/11/03 03:55:19;;;;;;;11.80;7.78;;;;;;;;;;5040422;28;20724;-81
2021/11/03 03:57:45;;;;;;;12.73;8.70;;;;;;;;;;5040486;28;20204;-80
2021/11/03 04:00:14;;;;;;;13.38;9.43;;;;;;;;;;5038014;28;20235;-82
2021/11/03 04:02:41;;;;;;;10.27;8.50;;;;;;;;;;5037494;28;20943;-80
2021/11/03 04:05:08;;;;;;;11.18;8.68;;;;;;;;;;5038963;28;20262;-82
2021/11/03 04:07:35;;;;;;;11.40;9.10;;;;;;;;;;5039014;28;20213;-81
2021/11/03 04:10:04;;;;;;;9.35;8.35;;;;;;;;;;5039098;28;20232;-80
2021/11/03 04:12:31;;;;;;;10.20;8.13;;;;;;;;;;5038923;28;20624;-80
2021/11/03 04:14:58;;;;;;;15.50;8.73;;;;;;;;;;5037776;28;20231;-79
2021/11/03 04:17:25;;;;;;;13.48;9.63;;;;;;;;;;5038269;28;20666;-81
2021/11/03 04:19:52;;;;;;;13.98;8.32;;;;;;;;;;5038407;28;20281;-80
2021/11/03 04:22:19;;;;;;;12.80;9.20;;;;;;;;;;5036949;28;20207;-81
2021/11/03 04:24:46;;;;;;;10.60;8.15;;;;;;;;;;5036730;28;20255;-81
2021/11/03 04:27:14;;;;;;;10.55;8.55;;;;;;;;;;5036675;28;20231;-81
2021/11/03 04:29:41;;;;;;;11.95;9.35;;;;;;;;;;5036327;28;20203;-81
2021/11/03 04:32:09;;;;;;;10.60;9.35;;;;;;;;;;5036546;28;20203;-81
2021/11/03 04:34:36;;;;;;;15.15;9.55;;;;;;;;;;5037158;28;20243;-80
2021/11/03 04:37:03;;;;;;;9.10;8.15;;;;;;;;;;5036434;28;20258;-80
2021/11/03 04:39:30;;;;;;;15.77;9.98;;;;;;;;;;5036551;28;20231;-80
2021/11/03 04:41:57;;;;;;;11.88;9.55;;;;;;;;;;5036748;28;20235;-80
2021/11/03 04:44:25;;;;;;;11.95;8.82;;;;;;;;;;5036786;28;20224;-81
2021/11/03 04:46:52;;;;;;;12.85;9.10;;;;;;;;;;5037116;28;20215;-80
2021/11/03 04:49:20;;;;;;;20.10;10.05;;;;;;;;;;5040307;28;20188;-79
2021/11/03 04:51:48;;;;;;;13.60;9.38;;;;;;;;;;5051403;28;20250;-79
2021/11/03 04:54:15;;;;;;;10.85;8.65;;;;;;;;;;5053126;28;20234;-79
2021/11/03 04:56:42;;;;;;;14.13;10.00;;;;;;;;;;5053107;28;20208;-80
2021/11/03 04:59:09;;;;;;;15.30;10.50;;;;;;;;;;5053867;28;20662;-79
2021/11/03 05:01:37;;;;;;;13.43;10.25;;;;;;;;;;5076139;22;20288;-79
2021/11/03 05:04:04;;;;;;;15.10;10.98;;;;;;;;;;5055565;28;20258;-79
2021/11/03 05:06:36;;;;;;;14.50;9.75;;;;;;;;;;5054276;28;20199;-78
2021/11/03 05:09:04;;;;;;;12.77;9.88;;;;;;;;;;5053890;28;20187;-78
2021/11/03 05:11:31;;;;;;;14.00;9.57;;;;;;;;;;5054116;28;20222;-78
2021/11/03 05:13:58;;;;;;;17.35;10.07;;;;;;;;;;5054423;28;20203;-80
2021/11/03 05:16:26;;;;;;;13.65;10.13;;;;;;;;;;5054090;28;20252;-78
2021/11/03 05:18:55;;;;;;;11.32;8.50;;;;;;;;;;5053950;28;20234;-78
2021/11/03 05:21:22;;;;;;;12.55;9.90;;;;;;;;;;5054194;28;20265;-78
2021/11/03 05:23:49;;;;;;;15.15;10.10;;;;;;;;;;5054111;28;20272;-78
2021/11/03 05:26:17;;;;;;;10.68;9.45;;;;;;;;;;5056794;28;20645;-78
2021/11/03 05:28:45;;;;;;;16.38;10.00;;;;;;;;;;5057356;28;20257;-78
2021/11/03 05:31:12;;;;;;;13.77;9.65;;;;;;;;;;5056666;28;20710;-78
2021/11/03 05:33:39;;;;;;;15.95;9.95;;;;;;;;;;5056915;28;20222;-78
2021/11/03 05:36:07;;;;;;;12.18;8.40;;;;;;;;;;5056931;28;20207;-78
2021/11/03 05:38:34;;;;;;;12.77;9.70;;;;;;;;;;5057502;28;20695;-78
2021/11/03 05:41:01;;;;;;;11.15;9.07;;;;;;;;;;5058161;28;20296;-78
2021/11/03 05:43:28;;;;;;;13.65;9.80;;;;;;;;;;5058266;28;20772;-78
2021/11/03 05:45:55;;;;;;;13.32;10.32;;;;;;;;;;5058364;28;20234;-78
2021/11/03 05:48:24;;;;;;;12.95;9.63;;;;;;;;;;5056798;28;20235;-78
2021/11/03 05:50:51;;;;;;;13.60;10.30;;;;;;;;;;5057665;28;20223;-78
2021/11/03 05:53:20;;;;;;;13.13;9.80;;;;;;;;;;5059778;28;20230;-78
2021/11/03 05:55:47;;;;;;;16.27;12.10;;;;;;;;;;5059751;28;20237;-78
2021/11/03 05:58:14;;;;;;;25.50;14.15;;;;;;;;;;5061637;28;20230;-79
2021/11/03 06:00:41;;;;;;;12.45;10.07;;;;;;;;;;5060629;28;20261;-78
2021/11/03 06:03:08;;;;;;;15.50;11.80;;;;;;;;;;5059981;28;20210;-79
2021/11/03 06:05:35;;;;;;;13.45;11.38;;;;;;;;;;5058683;28;20254;-78
2021/11/03 06:08:03;;;;;;;15.75;10.55;;;;;;;;;;5058980;28;20329;-79
2021/11/03 06:10:37;;;;;;;13.38;11.30;;;;;;;;;;5058410;28;20319;-78
2021/11/03 06:13:04;;;;;;;14.43;11.65;;;;;;;;;;5058054;28;20258;-78
2021/11/03 06:15:32;;;;;;;14.55;11.63;;;;;;;;;;5057082;28;20245;-78
2021/11/03 06:18:00;;;;;;;17.83;13.40;;;;;;;;;;5057793;28;20654;-78
2021/11/03 06:20:28;;;;;;;17.48;12.45;;;;;;;;;;5057752;28;20241;-79
2021/11/03 06:22:55;;;;;;;19.95;12.85;;;;;;;;;;5057789;28;20294;-79
2021/11/03 06:25:24;;;;;;;16.02;12.05;;;;;;;;;;5057271;28;20651;-78
2021/11/03 06:27:53;;;;;;;17.48;13.63;;;;;;;;;;5056335;28;20234;-78
2021/11/03 06:30:21;;;;;;;17.55;13.23;;;;;;;;;;5056783;28;20259;-78
2021/11/03 06:32:48;;;;;;;17.73;12.43;;;;;;;;;;5056934;28;20580;-78
2021/11/03 06:35:16;;;;;;;12.70;11.18;;;;;;;;;;5056680;28;20229;-78
2021/11/03 06:37:43;;;;;;;12.93;10.50;;;;;;;;;;5060277;28;20630;-78
2021/11/03 06:40:12;;;;;;;16.35;11.43;;;;;;;;;;5059808;28;20219;-77
2021/11/03 06:42:39;;;;;;;12.57;9.88;;;;;;;;;;5059542;28;20229;-78
2021/11/03 06:45:08;;;;;;;14.10;11.07;;;;;;;;;;5060133;28;20227;-79
2021/11/03 06:47:35;;;;;;;15.15;11.40;;;;;;;;;;5060644;28;20230;-78
2021/11/03 06:50:02;;;;;;;26.23;11.27;;;;;;;;;;5060006;28;20210;-77
2021/11/03 06:52:29;;;;;;;17.20;10.90;;;;;;;;;;5059845;28;20226;-77
2021/11/03 06:54:56;;;;;;;16.92;11.05;;;;;;;;;;5073490;28;20259;-77
2021/11/03 06:57:23;;;;;;;18.80;11.75;;;;;;;;;;5059763;28;20630;-78
2021/11/03 06:59:53;;;;;;;14.68;11.05;;;;;;;;;;5059670;28;20234;-78
2021/11/03 07:02:22;;;;;;;22.67;13.27;;;;;;;;;;5057705;28;20187;-78
2021/11/03 07:04:49;;;;;;;15.90;10.55;;;;;;;;;;5059050;28;20624;-79
2021/11/03 07:07:16;;;;;;;14.15;10.93;;;;;;;;;;5063112;28;20674;-79
2021/11/03 07:09:43;;;;;;;14.00;10.23;;;;;;;;;;5062923;28;20199;-79
2021/11/03 07:12:10;;;;;;;20.45;11.50;;;;;;;;;;5057852;28;20223;-79
2021/11/03 07:14:37;;;;;;;12.48;10.25;;;;;;;;;;5060709;28;20209;-78
2021/11/03 07:17:06;;;;;;;13.65;10.10;;;;;;;;;;5062323;28;20203;-78
2021/11/03 07:19:35;;;;;;;12.30;10.40;;;;;;;;;;5058107;28;20199;-78
2021/11/03 07:22:02;;;;;;;17.52;10.48;;;;;;;;;;5057041;28;20723;-78
2021/11/03 07:24:28;;;;;;;15.07;10.57;;;;;;;;;;5056074;28;20258;-78
2021/11/03 07:26:55;;;;;;;14.43;10.23;;;;;;;;;;5056770;28;20230;-79
2021/11/03 07:29:22;;;;;;;13.07;10.20;;;;;;;;;;5058648;28;20229;-79
2021/11/03 07:31:50;;;;;;;15.63;11.43;;;;;;;;;;5057336;28;20257;-78
2021/11/03 07:34:17;;;;;;;14.90;9.85;;;;;;;;;;5058381;28;20204;-79
2021/11/03 07:36:45;;;;;;;16.88;11.23;;;;;;;;;;5057711;28;20245;-78
2021/11/03 07:39:13;;;;;;;13.88;10.05;;;;;;;;;;5057870;28;20230;-79
2021/11/03 07:41:40;;;;;;;11.85;9.02;;;;;;;;;;5056926;28;20373;-79
2021/11/03 07:44:08;;;;;;;13.93;9.73;;;;;;;;;;5057948;28;20766;-78
2021/11/03 07:46:35;;;;;;;10.80;8.25;;;;;;;;;;5054790;28;20207;-78
2021/11/03 07:49:02;;;;;;;10.85;8.88;;;;;;;;;;5055443;28;20234;-78
2021/11/03 07:51:29;;;;;;;11.60;8.90;;;;;;;;;;5061871;28;20273;-79
2021/11/03 07:53:59;;;;;;;12.15;9.50;;;;;;;;;;5057127;28;20206;-78
2021/11/03 07:56:27;;;;;;;17.73;13.52;;;;;;;;;;5055796;28;20217;-79
2021/11/03 07:58:55;;;;;;;25.35;17.23;;;;;;;;;;5057174;28;20254;-78
2021/11/03 08:01:22;;;;;;;26.55;15.75;;;;;;;;;;5057092;28;20587;-79
2021/11/03 08:03:50;;;;;;;16.05;12.75;;;;;;;;;;5057273;28;20207;-78
2021/11/03 08:06:17;;;;;;;16.35;13.05;;;;;;;;;;5057282;28;20237;-78
2021/11/03 08:08:50;;;;;;;18.67;12.80;;;;;;;;;;5058241;28;20221;-80
2021/11/03 08:11:19;;;;;;;19.80;11.35;;;;;;;;;;5056711;28;20233;-79
2021/11/03 08:13:46;;;;;;;12.80;10.50;;;;;;;;;;5056827;28;20669;-78
2021/11/03 08:16:13;;;;;;;14.30;11.40;;;;;;;;;;5056186;28;20242;-77
2021/11/03 08:18:41;;;;;;;17.40;12.40;;;;;;;;;;5053859;28;20234;-78
2021/11/03 08:21:08;;;;;;;12.35;9.65;;;;;;;;;;5054104;28;20574;-78
2021/11/03 08:23:38;;;;;;;12.82;9.57;;;;;;;;;;5056837;28;20238;-78
2021/11/03 08:26:05;;;;;;;15.82;10.55;;;;;;;;;;5057967;28;20257;-78
2021/11/03 08:28:34;;;;;;;17.10;11.18;;;;;;;;;;5057473;28;20199;-78
2021/11/03 08:31:01;;;;;;;13.38;9.70;;;;;;;;;;5058883;28;20736;-78
2021/11/03 08:33:31;;;;;;;12.90;9.65;;;;;;;;;;5056585;28;20203;-79
2021/11/03 08:35:59;;;;;;;13.38;10.10;;;;;;;;;;5055256;28;20203;-78
2021/11/03 08:38:26;;;;;;;12.05;10.52;;;;;;;;;;5055380;28;20241;-79
2021/11/03 08:40:54;;;;;;;13.18;10.40;;;;;;;;;;5058734;28;20637;-77
2021/11/03 08:43:26;;;;;;;11.82;10.20;;;;;;;;;;5056476;28;20226;-79
2021/11/03 08:45:55;;;;;;;17.67;9.88;;;;;;;;;;5054785;28;20211;-79
2021/11/03 08:48:22;;;;;;;11.30;9.48;;;;;;;;;;5053998;28;20661;-78
2021/11/03 08:50:49;;;;;;;14.77;10.98;;;;;;;;;;5053110;28;20259;-77
2021/11/03 08:53:17;;;;;;;13.60;9.90;;;;;;;;;;5053313;28;20697;-77
2021/11/03 08:55:45;;;;;;;10.70;8.63;;;;;;;;;;5053849;28;20423;-79
2021/11/03 08:58:13;;;;;;;17.33;10.00;;;;;;;;;;5055992;28;20238;-78
2021/11/03 09:00:41;;;;;;;14.07;9.65;;;;;;;;;;5055226;28;20473;-77
2021/11/03 09:03:09;;;;;;;13.30;10.20;;;;;;;;;;5053493;28;20697;-79
2021/11/03 09:05:36;;;;;;;11.55;9.30;;;;;;;;;;5054637;28;20515;-79
2021/11/03 09:08:03;;;;;;;16.10;9.73;;;;;;;;;;5054447;28;20249;-79
2021/11/03 09:10:34;;;;;;;14.07;10.75;;;;;;;;;;5054171;28;20470;-79
2021/11/03 09:13:01;;;;;;;12.00;10.70;;;;;;;;;;5054920;28;20291;-78
2021/11/03 09:15:29;;;;;;;12.70;10.60;;;;;;;;;;5054207;28;20850;-78
2021/11/03 09:17:56;;;;;;;14.33;9.00;;;;;;;;;;5054263;28;20488;-78
2021/11/03 09:20:25;;;;;;;19.53;10.30;;;;;;;;;;5054236;28;21008;-78
2021/11/03 09:22:52;;;;;;;14.17;9.83;;;;;;;;;;5054729;28;20473;-78
2021/11/03 09:25:20;;;;;;;12.38;9.30;;;;;;;;;;5058077;28;20520;-79
2021/11/03 09:27:47;;;;;;;15.07;10.70;;;;;;;;;;5057828;28;20223;-79
2021/11/03 09:30:15;;;;;;;17.23;9.03;;;;;;;;;;5058831;28;20515;-79
2021/11/03 09:32:46;;;;;;;14.17;9.70;;;;;;;;;;5060670;28;20424;-78
2021/11/03 09:35:14;;;;;;;11.77;9.67;;;;;;;;;;5057171;28;20487;-79
2021/11/03 09:37:42;;;;;;;11.53;9.93;;;;;;;;;;5057923;28;20449;-78
2021/11/03 09:40:11;;;;;;;19.93;9.40;;;;;;;;;;5059281;28;20495;-78
2021/11/03 09:42:39;;;;;;;9.87;8.40;;;;;;;;;;5062579;28;20660;-79
2021/11/03 09:45:10;;;;;;;12.17;9.53;;;;;;;;;;5058847;28;20447;-79
2021/11/03 09:47:40;;;;;;;12.10;10.63;;;;;;;;;;5063831;28;20432;-78
2021/11/03 09:50:15;;;;;;;11.45;8.68;;;;;;;;;;5059271;28;20527;-79
2021/11/03 09:52:46;;;;;;;12.43;10.20;;;;;;;;;;5059414;28;20186;-80
2021/11/03 09:55:20;;;;;;;13.37;10.37;;;;;;;;;;5058147;28;20451;-79
2021/11/03 09:57:53;;;;;;;10.90;9.20;;;;;;;;;;5058348;28;20434;-78
2021/11/03 10:00:23;;;;;;;10.43;9.30;;;;;;;;;;5057637;28;20488;-78
2021/11/03 10:02:54;;;;;;;10.67;9.23;;;;;;;;;;5058353;28;20792;-78
2021/11/03 10:05:25;;;;;;;10.67;9.00;;;;;;;;;;5057802;28;20487;-78
2021/11/03 10:07:57;;;;;;;10.00;9.00;;;;;;;;;;5060926;28;20487;-78
2021/11/03 10:10:28;;;;;;;14.30;9.60;;;;;;;;;;5062288;28;20440;-79
2021/11/03 10:12:55;;;;;;;10.20;8.67;;;;;;;;;;5058713;28;20466;-78
2021/11/03 10:15:24;;;;;;;11.47;8.97;;;;;;;;;;5057954;28;20576;-78
2021/11/03 10:18:05;;;;;;;12.93;9.60;;;;;;;;;;5060671;28;20523;-78
2021/11/03 10:20:39;;;;;;;12.17;9.20;;;;;;;;;;5059559;28;20888;-79
2021/11/03 10:23:09;;;;;;;10.73;9.60;;;;;;;;;;5057691;28;20450;-79
2021/11/03 10:25:37;;;;;;;13.67;8.50;;;;;;;;;;5057937;28;20524;-79
2021/11/03 10:28:04;;;;;;;9.90;8.80;;;;;;;;;;5058508;28;20424;-79
2021/11/03 10:30:34;;;;;;;10.47;8.40;;;;;;;;;;5062594;28;20453;-79
2021/11/03 10:33:13;;;;;;;18.40;11.80;;;;;;;;;;5062358;28;20400;-78
2021/11/03 10:35:40;;;;;;;11.03;8.67;;;;;;;;;;5074052;28;20422;-77
2021/11/03 10:38:11;;;;;;;13.37;9.23;;;;;;;;;;5075298;28;20487;-78
2021/11/03 10:40:43;;;;;;;9.93;7.17;;;;;;;;;;5072036;28;20457;-78
2021/11/03 10:43:22;;;;;;;10.70;8.67;;;;;;;;;;5068760;28;20472;-79
2021/11/03 10:45:56;;;;;;;11.37;9.03;;;;;;;;;;5060287;28;20443;-78
2021/11/03 10:48:24;;;;;;;10.80;8.47;;;;;;;;;;5059263;28;20430;-79
2021/11/03 10:51:05;;;;;;;9.47;7.73;;;;;;;;;;5062215;28;20885;-78
2021/11/03 10:53:45;;;;;;;8.30;7.50;;;;;;;;;;5061682;28;20798;-78
2021/11/03 10:56:15;;;;;;;8.93;8.03;;;;;;;;;;5059455;28;20404;-79
2021/11/03 10:58:55;;;;;;;8.50;7.60;;;;;;;;;;5058567;28;20456;-77
2021/11/03 11:01:28;;;;;;;9.20;7.67;;;;;;;;;;5072009;22;20544;-82
2021/11/03 11:03:59;;;;;;;8.47;7.40;;;;;;;;;;5039711;28;20398;-80
2021/11/03 11:06:28;;;;;;;8.87;8.07;;;;;;;;;;5038807;28;20985;-82
2021/11/03 11:08:58;;;;;;;8.23;7.37;;;;;;;;;;5038100;28;20496;-81
2021/11/03 11:11:29;;;;;;;11.83;6.93;;;;;;;;;;5042370;28;20466;-81
2021/11/03 11:14:00;;;;;;;7.63;6.90;;;;;;;;;;5039275;28;20505;-81
2021/11/03 11:16:30;;;;;;;9.30;7.80;;;;;;;;;;5041128;28;20437;-82
2021/11/03 11:19:02;;;;;;;7.07;6.37;;;;;;;;;;5041774;28;20434;-82
2021/11/03 11:21:36;;;;;;;10.30;7.30;;;;;;;;;;5040480;28;20943;-81
2021/11/03 11:24:11;;;;;;;8.47;6.50;;;;;;;;;;5040157;28;20461;-81
2021/11/03 11:26:39;;;;;;;9.90;7.00;;;;;;;;;;5039915;28;20466;-81
2021/11/03 11:29:10;;;;;;;10.50;7.10;;;;;;;;;;5039520;28;20453;-81
2021/11/03 11:31:39;;;;;;;8.13;6.67;;;;;;;;;;5041544;28;20462;-80
2021/11/03 11:34:11;;;;;;;8.83;7.70;;;;;;;;;;5054661;28;20442;-81
2021/11/03 11:36:41;;;;;;;11.03;8.30;;;;;;;;;;5051316;28;20431;-82
2021/11/03 11:39:19;;;;;;;7.67;6.87;;;;;;;;;;5052714;28;20441;-81
2021/11/03 11:41:57;;;;;;;8.63;7.40;;;;;;;;;;5055511;28;20493;-80
2021/11/03 11:44:27;;;;;;;7.10;6.40;;;;;;;;;;5055579;28;20418;-80
2021/11/03 11:46:55;;;;;;;9.23;8.13;;;;;;;;;;5055845;28;20485;-80
2021/11/03 11:49:23;;;;;;;6.43;5.83;;;;;;;;;;5049943;28;20443;-80
2021/11/03 11:51:51;;;;;;;7.00;6.20;;;;;;;;;;5055835;28;20521;-81
2021/11/03 11:54:24;;;;;;;7.47;6.77;;;;;;;;;;5052010;28;20457;-81
2021/11/03 11:57:10;;;;;;;8.27;5.70;;;;;;;;;;5053002;28;20439;-81
2021/11/03 11:59:56;;;;;;;7.60;6.43;;;;;;;;;;5050469;28;20938;-80
2021/11/03 12:02:23;;;;;;;7.17;5.70;;;;;;;;;;5042832;28;20485;-80
2021/11/03 12:04:51;;;;;;;6.67;5.53;;;;;;;;;;5051408;28;20442;-80
2021/11/03 12:07:29;;;;;;;12.23;5.67;;;;;;;;;;5053778;28;20493;-80
2021/11/03 12:10:13;;;;;;;6.43;5.70;;;;;;;;;;5053675;28;20517;-80
2021/11/03 12:12:55;;;;;;;7.57;5.50;;;;;;;;;;5048488;28;20891;-81
2021/11/03 12:15:37;;;;;;;7.40;6.70;;;;;;;;;;5042931;28;20438;-81
2021/11/03 12:18:04;;;;;;;9.20;7.43;;;;;;;;;;5044689;28;20446;-82
2021/11/03 12:20:39;;;;;;;7.03;6.33;;;;;;;;;;5041678;28;20894;-81
2021/11/03 12:23:26;;;;;;;9.20;6.20;;;;;;;;;;5042537;28;20453;-81
2021/11/03 12:25:54;;;;;;;6.10;5.50;;;;;;;;;;5041724;28;20482;-81
2021/11/03 12:28:40;;;;;;;7.50;6.30;;;;;;;;;;5043614;28;20466;-81
2021/11/03 12:31:14;;;;;;;7.60;5.97;;;;;;;;;;5045507;28;20843;-81
2021/11/03 12:33:58;;;;;;;8.20;5.80;;;;;;;;;;5044745;28;20445;-80
2021/11/03 12:36:25;;;;;;;7.10;6.37;;;;;;;;;;5045103;28;20460;-79
2021/11/03 12:38:56;;;;;;;7.40;5.87;;;;;;;;;;5041513;28;20469;-81
2021/11/03 12:41:28;;;;;;;10.40;7.17;;;;;;;;;;5043068;28;20462;-81
2021/11/03 12:43:58;;;;;;;6.93;6.00;;;;;;;;;;5041416;28;20398;-82
2021/11/03 12:46:26;;;;;;;6.57;6.00;;;;;;;;;;5042893;28;20606;-81
2021/11/03 12:48:55;;;;;;;6.00;5.47;;;;;;;;;;5042929;28;20448;-82
2021/11/03 12:51:23;;;;;;;5.40;5.00;;;;;;;;;;5041175;28;20985;-82
2021/11/03 12:53:51;;;;;;;6.47;5.80;;;;;;;;;;5043351;28;20442;-79
2021/11/03 12:56:21;;;;;;;6.03;5.40;;;;;;;;;;5050391;28;20450;-79
2021/11/03 12:58:53;;;;;;;4.83;4.43;;;;;;;;;;5051833;28;20445;-80
2021/11/03 13:01:22;;;;;;;6.40;5.07;;;;;;;;;;5050215;28;20533;-80
2021/11/03 13:04:00;;;;;;;4.53;3.90;;;;;;;;;;5043651;28;20447;-80
2021/11/03 13:06:29;;;;;;;4.27;3.87;;;;;;;;;;5040491;28;20519;-81
2021/11/03 13:08:56;;;;;;;3.67;3.37;;;;;;;;;;5042187;28;20446;-80
2021/11/03 13:11:26;;;;;;;4.17;3.53;;;;;;;;;;5046412;28;20474;-81
2021/11/03 13:13:55;;;;;;;4.87;3.73;;;;;;;;;;5044570;28;20516;-80
2021/11/03 13:16:27;;;;;;;4.40;4.10;;;;;;;;;;5041826;28;20449;-82
2021/11/03 13:18:55;;;;;;;4.97;4.47;;;;;;;;;;5041395;28;20442;-81
2021/11/03 13:21:25;;;;;;;5.97;5.20;;;;;;;;;;5040074;28;20497;-80
2021/11/03 13:23:53;;;;;;;4.97;4.57;;;;;;;;;;5038383;28;20426;-80
2021/11/03 13:26:23;;;;;;;5.60;5.07;;;;;;;;;;5038908;28;21078;-80
2021/11/03 13:28:51;;;;;;;6.83;6.13;;;;;;;;;;5039755;28;20537;-81
2021/11/03 13:31:29;;;;;;;8.10;6.23;;;;;;;;;;5039585;28;20466;-81
2021/11/03 13:34:01;;;;;;;6.80;6.20;;;;;;;;;;5040882;28;20415;-81
2021/11/03 13:36:33;;;;;;;6.87;6.20;;;;;;;;;;5038820;28;20431;-82
2021/11/03 13:39:01;;;;;;;6.57;6.03;;;;;;;;;;5039131;28;20453;-81
2021/11/03 13:41:32;;;;;;;4.97;4.57;;;;;;;;;;5039262;28;20516;-81
2021/11/03 13:44:16;;;;;;;5.47;5.03;;;;;;;;;;5038164;28;20463;-82
2021/11/03 13:46:47;;;;;;;7.93;5.73;;;;;;;;;;5038363;28;20485;-80
2021/11/03 13:49:17;;;;;;;7.60;5.93;;;;;;;;;;5041188;28;20463;-81
2021/11/03 13:51:48;;;;;;;6.27;5.57;;;;;;;;;;5038593;28;20530;-82
2021/11/03 13:54:24;;;;;;;6.27;5.70;;;;;;;;;;5038570;28;20429;-81
2021/11/03 13:56:56;;;;;;;6.20;5.70;;;;;;;;;;5039376;28;20437;-81
2021/11/03 13:59:26;;;;;;;13.73;5.90;;;;;;;;;;5037689;28;20421;-81
2021/11/03 14:01:59;;;;;;;9.83;6.03;;;;;;;;;;5038931;28;20518;-81
2021/11/03 14:04:36;;;;;;;11.10;6.13;;;;;;;;;;5037565;28;20435;-82
2021/11/03 14:07:06;;;;;;;6.57;5.97;;;;;;;;;;5037637;28;20876;-83
2021/11/03 14:09:33;;;;;;;9.37;5.13;;;;;;;;;;5038628;28;20428;-81
2021/11/03 14:12:01;;;;;;;6.63;5.87;;;;;;;;;;5041562;28;21015;-83
2021/11/03 14:14:29;;;;;;;6.97;6.30;;;;;;;;;;5045068;28;20450;-81
2021/11/03 14:17:05;;;;;;;6.03;4.83;;;;;;;;;;5050623;28;20451;-81
2021/11/03 14:19:33;;;;;;;6.20;4.53;;;;;;;;;;5045430;28;20777;-82
2021/11/03 14:22:00;;;;;;;5.90;5.40;;;;;;;;;;5045577;28;20497;-81
2021/11/03 14:24:28;;;;;;;4.10;3.70;;;;;;;;;;5045799;28;20454;-81
2021/11/03 14:26:56;;;;;;;4.80;4.30;;;;;;;;;;5043096;28;20456;-81
2021/11/03 14:29:23;;;;;;;4.60;3.63;;;;;;;;;;5043442;28;20454;-82
2021/11/03 14:31:51;;;;;;;4.30;3.90;;;;;;;;;;5050689;28;20470;-81
2021/11/03 14:34:21;;;;;;;4.07;3.67;;;;;;;;;;5055191;28;20434;-80
2021/11/03 14:36:48;;;;;;;4.47;4.17;;;;;;;;;;5055575;28;20873;-80
2021/11/03 14:39:20;;;;;;;4.90;4.50;;;;;;;;;;5056881;28;20442;-82
2021/11/03 14:41:47;;;;;;;6.57;4.87;;;;;;;;;;5058258;28;20449;-81